Hauptseite
METAR-TAF:

METAR-TAF

Flughäfen :

Flughafen Palma de Mallorca

Palma, Spanien

Breite: 39-33N, Länge: 002-44E, Höhe: 4 m

Beobachtung

Neuester Wetterbericht von vor 33 Minuten, um 02:30 UTC
Wind 2 kt aus Ost/Nordost
Temperatur 16°C
Luftfeuchtigkeit 68%
Luftdruck 1025 hPa
Sichtweite 10 km oder mehr
keine Wolken unter 1500 m und keine Kumulonimbus oder Gewitterwolken

METAR: LEPA 250230Z 06002KT CAVOK 16/10 Q1025 NOSIG

Zeit: 05:03 (03:03 UTC)

Prognose

Neuester Wetterbericht von vor 4 Stunden und 3 Minuten, um 23:00 UTC
Gültige Prognose vom 25 um 00 UTC bis 25 um 24 UTC
Wind 5 kt aus Nordost
Sichtweite 10 km oder mehr
keine Wolken unter 1500 m und keine Kumulonimbus oder Gewitterwolken
Wahrscheinlichkeit 40% :
Zeitweise
vom 25 um 10 UTC bis 25 um 18 UTC
Wind 7 kt aus Südwest

TAF: LEPA 242300Z 2500/2524 04005KT CAVOK TX28/2512Z TN15/2506Z PROB40 TEMPO 2510/2518 23007KT

Wetterbeobachtungen und Prognosen von mehr als 4000 Flughäfen (METAR und TAF Bericht).

Die verfügbaren Stationen werden durch gelbe und rote Markierungen auf der Karte dargestellt.

Führen Sie die Maus auf sie, um den Namen der Station zu sehen.

Darauf klicken, um die Beobachtung von Wetterbeobachtungen und Prognosen zu sehen.

Um die Karte zu ändern : klicken Sie auf den grünen Tasten mit einem schwarzen Kreuz Zum Vergrößern, auf den grünen Button mit einem Gedankenstrich zu verkleinern, oder auf die grünen Pfeile für benachbarte Karten.


METAR-TAF: